createdAt,value
2023-07-24T00:02:13.953Z,5.27
2023-07-24T00:05:16.331Z,4.82
2023-07-24T00:08:18.841Z,4.72
2023-07-24T00:11:21.001Z,4.93
2023-07-24T00:14:24.266Z,5.07
2023-07-24T00:17:26.637Z,4.63
2023-07-24T00:20:29.264Z,4.70
2023-07-24T00:23:31.446Z,4.70
2023-07-24T00:26:33.570Z,5.25
2023-07-24T00:29:35.864Z,5.22
2023-07-24T00:32:38.609Z,5.20
2023-07-24T00:35:41.051Z,4.85
2023-07-24T00:38:43.601Z,4.38
2023-07-24T00:41:47.488Z,5.05
2023-07-24T00:44:50.072Z,4.93
2023-07-24T00:47:52.904Z,5.33
2023-07-24T00:50:55.388Z,4.97
2023-07-24T00:53:58.297Z,5.03
2023-07-24T00:57:05.816Z,4.72
2023-07-24T01:00:08.323Z,5.43
2023-07-24T01:03:10.640Z,4.83
2023-07-24T01:06:12.809Z,5.28
2023-07-24T01:09:15.065Z,5.22
2023-07-24T01:12:22.428Z,5.22
2023-07-24T01:15:34.680Z,5.20
2023-07-24T01:18:38.198Z,4.90
2023-07-24T01:21:45.817Z,5.82
2023-07-24T01:25:01.382Z,5.97
2023-07-24T01:28:07.788Z,5.88
2023-07-24T01:31:10.120Z,6.05
2023-07-24T01:34:12.416Z,5.77
2023-07-24T01:37:14.952Z,5.63
2023-07-24T01:40:17.729Z,5.88
2023-07-24T01:43:19.774Z,5.50
2023-07-24T01:46:24.684Z,5.57
2023-07-24T01:49:26.867Z,5.30
2023-07-24T01:52:28.895Z,5.05
2023-07-24T01:55:30.992Z,5.35
2023-07-24T01:58:33.069Z,5.80
2023-07-24T02:01:35.228Z,5.75
2023-07-24T02:04:37.314Z,6.43
2023-07-24T02:07:39.706Z,6.03
2023-07-24T02:10:42.248Z,7.03
2023-07-24T02:13:46.290Z,6.97
2023-07-24T02:16:49.008Z,7.10
2023-07-24T02:19:51.212Z,6.70
2023-07-24T02:22:53.986Z,6.75
2023-07-24T02:25:56.261Z,6.30
2023-07-24T02:28:58.311Z,6.35
2023-07-24T02:32:00.429Z,6.40
2023-07-24T02:35:03.665Z,7.03
2023-07-24T02:38:06.372Z,6.65
2023-07-24T02:41:08.408Z,7.63
2023-07-24T02:44:11.638Z,7.03
2023-07-24T02:47:13.663Z,7.10
2023-07-24T02:50:23.125Z,7.50
2023-07-24T02:53:25.448Z,7.70
2023-07-24T02:56:27.797Z,8.05
2023-07-24T02:59:31.585Z,7.85
2023-07-24T03:02:34.509Z,8.43
2023-07-24T03:05:36.717Z,7.53
2023-07-24T03:08:38.838Z,7.95
2023-07-24T03:11:40.903Z,8.95
2023-07-24T03:14:42.982Z,8.93
2023-07-24T03:17:45.067Z,9.90
2023-07-24T03:20:47.395Z,10.07
2023-07-24T03:23:49.456Z,9.85
2023-07-24T03:26:52.231Z,9.65
2023-07-24T03:29:56.617Z,10.05
2023-07-24T03:32:59.098Z,11.40
2023-07-24T03:36:01.603Z,11.37
2023-07-24T03:39:04.530Z,11.35
2023-07-24T03:42:06.805Z,11.02
2023-07-24T03:45:09.296Z,10.73
2023-07-24T03:48:11.869Z,13.63
2023-07-24T03:51:13.978Z,10.70
2023-07-24T03:54:16.072Z,9.00
2023-07-24T03:57:18.137Z,9.60
2023-07-24T04:00:20.548Z,10.75
2023-07-24T04:03:23.136Z,12.95
2023-07-24T04:06:25.618Z,12.77
2023-07-24T04:09:28.301Z,14.27
2023-07-24T04:12:30.341Z,13.15
2023-07-24T04:15:32.441Z,11.40
2023-07-24T04:18:34.517Z,10.75
2023-07-24T04:21:36.922Z,12.20
2023-07-24T04:24:39.554Z,10.05
2023-07-24T04:27:41.756Z,11.10
2023-07-24T04:30:46.300Z,10.70
2023-07-24T04:33:48.457Z,12.07
2023-07-24T04:36:50.571Z,12.63
2023-07-24T04:39:55.897Z,13.05
2023-07-24T04:42:59.505Z,13.23
2023-07-24T04:46:01.845Z,12.57
2023-07-24T04:49:04.064Z,12.38
2023-07-24T04:52:06.825Z,12.63
2023-07-24T04:55:09.011Z,12.85
2023-07-24T04:58:11.214Z,13.98
2023-07-24T05:01:13.482Z,13.15
2023-07-24T05:04:15.618Z,13.45
2023-07-24T05:07:17.942Z,13.57
2023-07-24T05:10:20.139Z,13.77
2023-07-24T05:13:22.292Z,14.45
2023-07-24T05:16:24.685Z,15.75
2023-07-24T05:19:26.939Z,15.80
2023-07-24T05:22:29.194Z,16.83
2023-07-24T05:25:31.317Z,16.60
2023-07-24T05:28:33.713Z,17.13
2023-07-24T05:31:36.870Z,18.27
2023-07-24T05:34:39.387Z,17.17
2023-07-24T05:37:41.550Z,17.57
2023-07-24T05:40:43.952Z,16.83
2023-07-24T05:43:46.075Z,16.75
2023-07-24T05:46:49.182Z,16.13
2023-07-24T05:49:51.398Z,16.73
2023-07-24T05:52:53.545Z,16.63
2023-07-24T05:55:59.908Z,16.30
2023-07-24T05:59:02.138Z,15.25
2023-07-24T06:02:05.493Z,14.95
2023-07-24T06:05:07.971Z,13.52
2023-07-24T06:08:12.187Z,14.50
2023-07-24T06:11:14.375Z,14.10
2023-07-24T06:14:16.443Z,13.63
2023-07-24T06:17:18.866Z,13.32
2023-07-24T06:20:20.891Z,12.15
2023-07-24T06:23:22.966Z,13.67
2023-07-24T06:26:25.068Z,13.10
2023-07-24T06:29:30.070Z,14.07
2023-07-24T06:32:32.138Z,12.35
2023-07-24T06:35:34.274Z,12.90
2023-07-24T06:38:36.327Z,13.03
2023-07-24T06:41:38.594Z,12.32
2023-07-24T06:44:40.752Z,12.43
2023-07-24T06:47:46.021Z,12.48
2023-07-24T06:50:48.227Z,12.73
2023-07-24T06:53:50.774Z,12.60
2023-07-24T06:56:52.866Z,11.52
2023-07-24T06:59:55.648Z,11.48
2023-07-24T07:02:57.771Z,12.02
2023-07-24T07:06:00.606Z,11.85
2023-07-24T07:09:02.665Z,12.57
2023-07-24T07:12:04.812Z,12.68
2023-07-24T07:15:07.310Z,11.20
2023-07-24T07:18:09.454Z,11.25
2023-07-24T07:21:12.980Z,10.82
2023-07-24T07:24:15.218Z,10.87
2023-07-24T07:27:18.607Z,11.25
2023-07-24T07:30:20.731Z,11.05
2023-07-24T07:33:23.260Z,10.82
2023-07-24T07:36:29.014Z,10.50
2023-07-24T07:39:32.509Z,9.97
2023-07-24T07:42:39.858Z,9.98
2023-07-24T07:45:42.389Z,10.77
2023-07-24T07:48:44.508Z,10.02
2023-07-24T07:51:46.602Z,10.70
2023-07-24T07:54:49.121Z,9.00
2023-07-24T07:57:54.046Z,9.75
2023-07-24T08:00:56.211Z,9.80
2023-07-24T08:03:59.262Z,8.63
2023-07-24T08:07:01.514Z,9.00
2023-07-24T08:10:04.062Z,7.80
2023-07-24T08:13:06.186Z,7.68
2023-07-24T08:16:20.767Z,8.82
2023-07-24T08:19:23.092Z,7.95
2023-07-24T08:22:25.199Z,8.13
2023-07-24T08:25:27.242Z,9.30
2023-07-24T08:28:29.514Z,8.52
2023-07-24T08:31:31.735Z,8.77
2023-07-24T08:34:33.886Z,7.97
2023-07-24T08:37:36.321Z,7.65
2023-07-24T08:40:38.840Z,9.50
2023-07-24T08:43:42.562Z,8.75
2023-07-24T08:46:47.517Z,9.73
2023-07-24T08:49:51.099Z,9.60
2023-07-24T08:52:53.336Z,8.90
2023-07-24T08:55:56.010Z,9.00
2023-07-24T08:58:58.269Z,9.30
2023-07-24T09:02:00.354Z,8.85
2023-07-24T09:05:02.745Z,9.18
2023-07-24T09:08:04.995Z,9.05
2023-07-24T09:11:07.811Z,8.10
2023-07-24T09:14:14.477Z,9.18
2023-07-24T09:17:22.467Z,8.60
2023-07-24T09:23:33.954Z,9.05
2023-07-24T09:26:36.051Z,8.03
2023-07-24T09:29:38.170Z,8.93
2023-07-24T09:32:40.338Z,9.65
2023-07-24T09:35:42.433Z,9.55
2023-07-24T09:38:45.048Z,8.73
2023-07-24T09:41:50.911Z,9.20
2023-07-24T09:44:53.210Z,8.18
2023-07-24T09:48:02.631Z,9.07
2023-07-24T09:51:09.295Z,8.38
2023-07-24T09:54:16.869Z,8.73
2023-07-24T09:57:21.922Z,8.93
2023-07-24T10:00:25.482Z,10.05
2023-07-24T10:03:28.090Z,10.90
2023-07-24T10:06:31.318Z,9.52
2023-07-24T10:09:34.333Z,9.90
2023-07-24T10:12:37.643Z,10.23
2023-07-24T10:15:40.418Z,9.63
2023-07-24T10:18:45.140Z,10.40
2023-07-24T10:21:50.560Z,10.27
2023-07-24T10:24:53.084Z,10.30
2023-07-24T10:27:55.760Z,10.33
2023-07-24T10:31:00.613Z,10.63
2023-07-24T10:34:06.460Z,11.05
2023-07-24T10:37:10.093Z,10.25
2023-07-24T10:40:20.608Z,10.88
2023-07-24T10:43:23.099Z,9.50
2023-07-24T10:46:25.251Z,10.88
2023-07-24T10:49:27.372Z,11.57
2023-07-24T10:52:30.881Z,12.15
2023-07-24T10:55:33.016Z,10.82
2023-07-24T10:58:37.248Z,10.83
2023-07-24T11:01:40.411Z,11.73
2023-07-24T11:04:42.587Z,11.25
2023-07-24T11:07:44.664Z,9.18
2023-07-24T11:10:50.825Z,10.05
2023-07-24T11:13:52.877Z,9.73
2023-07-24T11:16:55.072Z,9.95
2023-07-24T11:20:09.411Z,11.85
2023-07-24T11:23:11.695Z,11.32
2023-07-24T11:26:13.954Z,12.00
2023-07-24T11:29:16.285Z,11.07
2023-07-24T11:32:21.907Z,12.30
2023-07-24T11:35:24.552Z,11.95
2023-07-24T11:38:26.784Z,10.73
2023-07-24T11:41:29.616Z,10.93
2023-07-24T11:44:31.995Z,11.47
2023-07-24T11:47:42.303Z,11.48
2023-07-24T11:50:45.379Z,11.60
2023-07-24T11:53:47.534Z,12.63
2023-07-24T11:56:49.604Z,12.02
2023-07-24T11:59:51.752Z,11.73
2023-07-24T12:02:59.950Z,12.02
2023-07-24T12:06:03.403Z,10.48
2023-07-24T12:09:09.375Z,9.60
2023-07-24T12:12:16.257Z,12.25
2023-07-24T12:15:18.608Z,11.43
2023-07-24T12:18:20.872Z,11.32
2023-07-24T12:21:22.940Z,11.27
2023-07-24T12:24:28.015Z,12.45
2023-07-24T12:27:30.628Z,11.45
2023-07-24T12:30:35.947Z,11.53
2023-07-24T12:33:38.091Z,9.57
2023-07-24T12:36:40.223Z,11.32
2023-07-24T12:39:42.396Z,10.70
2023-07-24T12:42:44.712Z,11.35
2023-07-24T12:45:46.838Z,10.30
2023-07-24T12:48:49.019Z,10.25
2023-07-24T12:51:51.132Z,11.25
2023-07-24T12:55:01.805Z,9.38
2023-07-24T12:58:05.583Z,8.88
2023-07-24T13:01:08.146Z,11.10
2023-07-24T13:04:10.232Z,10.85
2023-07-24T13:07:20.647Z,9.27
2023-07-24T13:10:23.119Z,10.18
2023-07-24T13:13:25.219Z,9.80
2023-07-24T13:16:28.801Z,10.13
2023-07-24T13:19:31.140Z,9.32
2023-07-24T13:22:33.201Z,10.23
2023-07-24T13:25:35.421Z,9.77
2023-07-24T13:28:38.135Z,9.25
2023-07-24T13:31:42.123Z,8.57
2023-07-24T13:34:44.462Z,8.85
2023-07-24T13:37:46.821Z,7.45
2023-07-24T13:40:49.128Z,6.93
2023-07-24T13:43:51.253Z,8.48
2023-07-24T13:46:53.990Z,7.50
2023-07-24T13:49:56.599Z,8.60
2023-07-24T13:53:06.655Z,8.18
2023-07-24T13:56:09.060Z,8.45
2023-07-24T13:59:11.954Z,7.25
2023-07-24T14:02:14.264Z,8.00
2023-07-24T14:05:17.069Z,7.18
2023-07-24T14:08:19.490Z,9.02
2023-07-24T14:11:21.652Z,8.48
2023-07-24T14:14:27.298Z,9.48
2023-07-24T14:17:29.913Z,9.10
2023-07-24T14:20:32.013Z,8.20
2023-07-24T14:23:35.037Z,9.02
2023-07-24T14:26:40.231Z,8.90
2023-07-24T14:29:42.359Z,9.60
2023-07-24T14:33:16.964Z,8.70
2023-07-24T14:36:19.423Z,8.57
2023-07-24T14:39:22.363Z,8.57
2023-07-24T14:42:24.463Z,9.73
2023-07-24T14:45:26.957Z,8.80
2023-07-24T14:48:29.065Z,8.73
2023-07-24T14:51:31.599Z,9.35
2023-07-24T14:54:36.462Z,9.88
2023-07-24T14:57:40.854Z,7.60
2023-07-24T15:00:44.497Z,9.45
2023-07-24T15:03:48.766Z,9.20
2023-07-24T15:06:53.282Z,9.20
2023-07-24T15:09:55.591Z,8.13
2023-07-24T15:12:57.762Z,8.45
2023-07-24T15:16:00.387Z,9.80
2023-07-24T15:19:02.464Z,8.73
2023-07-24T15:22:04.618Z,9.68
2023-07-24T15:25:07.116Z,10.73
2023-07-24T15:28:09.359Z,11.27
2023-07-24T15:31:15.841Z,9.38
2023-07-24T15:34:18.024Z,9.00
2023-07-24T15:37:20.122Z,9.95
2023-07-24T15:40:22.513Z,10.07
2023-07-24T15:43:26.214Z,9.40
2023-07-24T15:46:33.166Z,10.13
2023-07-24T15:49:35.544Z,9.70
2023-07-24T15:52:37.644Z,9.57
2023-07-24T15:55:40.321Z,9.60
2023-07-24T15:58:44.075Z,9.63
2023-07-24T16:01:46.208Z,10.00
2023-07-24T16:04:51.875Z,9.90
2023-07-24T16:07:54.648Z,9.15
2023-07-24T16:10:57.102Z,9.07
2023-07-24T16:13:59.648Z,7.80
2023-07-24T16:17:03.083Z,8.32
2023-07-24T16:20:05.613Z,7.40
2023-07-24T16:23:07.744Z,9.38
2023-07-24T16:26:09.900Z,7.45
2023-07-24T16:29:12.049Z,8.73
2023-07-24T16:32:14.151Z,8.45
2023-07-24T16:35:17.200Z,7.57
2023-07-24T16:38:19.420Z,8.50
2023-07-24T16:41:21.517Z,9.40
2023-07-24T16:44:33.291Z,7.50
2023-07-24T16:47:39.714Z,10.00
2023-07-24T16:50:42.598Z,8.80
2023-07-24T16:53:44.816Z,9.55
2023-07-24T16:56:46.984Z,9.82
2023-07-24T16:59:50.179Z,8.95
2023-07-24T17:02:53.789Z,8.73
2023-07-24T17:05:56.164Z,9.63
2023-07-24T17:08:58.398Z,9.48
2023-07-24T17:12:01.758Z,7.65
2023-07-24T17:15:04.962Z,8.73
2023-07-24T17:18:08.713Z,8.75
2023-07-24T17:21:11.979Z,8.87
2023-07-24T17:24:14.374Z,8.55
2023-07-24T17:27:16.962Z,9.25
2023-07-24T17:30:19.252Z,9.02
2023-07-24T17:33:23.946Z,8.10
2023-07-24T17:36:27.346Z,8.80
2023-07-24T17:39:29.713Z,8.02
2023-07-24T17:42:31.978Z,8.63
2023-07-24T17:45:35.473Z,9.00
2023-07-24T17:48:39.931Z,8.95
2023-07-24T17:51:42.404Z,8.57
2023-07-24T17:54:44.959Z,8.32
2023-07-24T17:57:51.656Z,8.48
2023-07-24T18:00:53.797Z,9.05
2023-07-24T18:03:56.269Z,9.65
2023-07-24T18:06:59.604Z,8.47
2023-07-24T18:10:04.889Z,8.55
2023-07-24T18:13:07.369Z,7.85
2023-07-24T18:16:09.601Z,8.48
2023-07-24T18:19:11.696Z,8.45
2023-07-24T18:22:14.136Z,8.00
2023-07-24T18:25:16.169Z,8.05
2023-07-24T18:28:18.688Z,9.10
2023-07-24T18:31:21.078Z,8.27
2023-07-24T18:34:23.356Z,7.85
2023-07-24T18:37:28.050Z,8.37
2023-07-24T18:40:30.896Z,8.15
2023-07-24T18:43:33.079Z,7.93
2023-07-24T18:46:36.199Z,8.90
2023-07-24T18:49:38.349Z,8.77
2023-07-24T18:52:41.263Z,8.23
2023-07-24T18:55:49.919Z,8.57
2023-07-24T18:58:52.092Z,7.30
2023-07-24T19:01:54.419Z,8.38
2023-07-24T19:04:57.647Z,8.55
2023-07-24T19:07:59.837Z,8.13
2023-07-24T19:11:02.330Z,8.23
2023-07-24T19:14:04.820Z,8.00
2023-07-24T19:17:07.290Z,8.13
2023-07-24T19:20:11.494Z,8.00
2023-07-24T19:23:13.680Z,7.70
2023-07-24T19:26:16.005Z,8.50
2023-07-24T19:29:18.307Z,8.15
2023-07-24T19:32:21.482Z,7.57
2023-07-24T19:35:23.776Z,7.50
2023-07-24T19:38:26.022Z,8.73
2023-07-24T19:41:28.299Z,7.35
2023-07-24T19:44:32.243Z,8.25
2023-07-24T19:47:35.468Z,7.25
2023-07-24T19:50:37.803Z,7.30
2023-07-24T19:53:40.077Z,6.90
2023-07-24T19:56:42.214Z,8.93
2023-07-24T19:59:44.281Z,7.43
2023-07-24T20:02:46.527Z,7.95
2023-07-24T20:05:54.270Z,7.68
2023-07-24T20:08:56.372Z,8.53
2023-07-24T20:11:58.460Z,8.25
2023-07-24T20:15:00.520Z,7.45
2023-07-24T20:18:04.270Z,7.43
2023-07-24T20:21:06.352Z,8.38
2023-07-24T20:24:12.148Z,7.23
2023-07-24T20:27:14.346Z,7.85
2023-07-24T20:30:16.641Z,7.25
2023-07-24T20:33:19.043Z,6.75
2023-07-24T20:36:23.854Z,7.25
2023-07-24T20:39:30.095Z,7.13
2023-07-24T20:42:32.258Z,7.25
2023-07-24T20:45:36.180Z,6.82
2023-07-24T20:48:38.558Z,7.00
2023-07-24T20:51:42.001Z,7.38
2023-07-24T20:54:44.224Z,8.23
2023-07-24T20:57:46.297Z,8.75
2023-07-24T21:00:48.499Z,8.02
2023-07-24T21:03:54.365Z,7.93
2023-07-24T21:06:56.807Z,6.55
2023-07-24T21:09:58.811Z,8.13
2023-07-24T21:13:00.939Z,7.45
2023-07-24T21:16:03.036Z,7.90
2023-07-24T21:19:05.257Z,7.63
2023-07-24T21:22:07.356Z,7.78
2023-07-24T21:25:09.611Z,7.90
2023-07-24T21:28:12.864Z,8.15
2023-07-24T21:31:15.807Z,8.10
2023-07-24T21:34:19.121Z,8.75
2023-07-24T21:37:21.310Z,8.43
2023-07-24T21:40:23.344Z,7.93
2023-07-24T21:43:25.531Z,8.63
2023-07-24T21:46:30.953Z,8.68
2023-07-24T21:49:35.283Z,8.43
2023-07-24T21:52:37.459Z,8.18
2023-07-24T21:55:40.415Z,8.23
2023-07-24T21:58:42.712Z,7.68
2023-07-24T22:01:45.059Z,7.93
2023-07-24T22:04:47.201Z,8.50
2023-07-24T22:07:50.102Z,7.85
2023-07-24T22:10:52.503Z,7.87
2023-07-24T22:13:54.915Z,8.50
2023-07-24T22:16:57.076Z,8.50
2023-07-24T22:19:59.394Z,7.90
2023-07-24T22:23:01.936Z,7.50
2023-07-24T22:26:04.239Z,7.63
2023-07-24T22:29:06.924Z,8.48
2023-07-24T22:32:09.406Z,8.13
2023-07-24T22:35:11.680Z,8.27
2023-07-24T22:38:13.823Z,7.15
2023-07-24T22:41:16.257Z,8.67
2023-07-24T22:44:18.336Z,8.25
2023-07-24T22:47:21.580Z,8.05
2023-07-24T22:50:24.256Z,8.27
2023-07-24T22:53:26.340Z,8.80
2023-07-24T22:56:28.630Z,8.10
2023-07-24T22:59:30.938Z,8.02
2023-07-24T23:02:33.029Z,8.50
2023-07-24T23:05:35.529Z,7.72
2023-07-24T23:08:37.667Z,8.18
2023-07-24T23:11:39.816Z,7.93
2023-07-24T23:14:41.905Z,8.85
2023-07-24T23:17:44.068Z,7.25
2023-07-24T23:20:46.112Z,7.25
2023-07-24T23:23:48.279Z,8.23
2023-07-24T23:26:50.988Z,7.07
2023-07-24T23:29:53.367Z,7.55
2023-07-24T23:32:55.669Z,7.28
2023-07-24T23:35:57.720Z,8.23
2023-07-24T23:39:02.886Z,7.55
2023-07-24T23:42:05.334Z,7.13
2023-07-24T23:45:07.721Z,6.60
2023-07-24T23:48:10.077Z,7.57
2023-07-24T23:51:16.623Z,6.65
2023-07-24T23:54:18.952Z,7.47
2023-07-24T23:57:21.028Z,6.80
